Time;durP1;ratioP1;P1;durP2;ratioP2;P2;SDS_P1;SDS_P2;PMS_P1;PMS_P2;Temp;Humidity;BMP_temperature;BMP_pressure;BME280_temperature;BME280_humidity;BME280_pressure;Samples;Min_cycle;Max_cycle;Signal;HPM_P1;HPM_P2
2023/01/13 00:01:19;;;;;;;29.55;4.60;;;8.30;99.90;;;;;;5052697;28;20045;-67
2023/01/13 00:03:46;;;;;;;28.02;4.70;;;8.30;99.90;;;;;;5052567;28;20045;-69
2023/01/13 00:06:14;;;;;;;23.38;4.03;;;8.70;99.90;;;;;;5052493;28;20053;-68
2023/01/13 00:08:40;;;;;;;30.77;4.28;;;8.40;99.90;;;;;;5052411;28;20049;-68
2023/01/13 00:11:06;;;;;;;42.08;5.50;;;8.40;99.90;;;;;;5052535;28;20075;-70
2023/01/13 00:13:34;;;;;;;35.33;5.57;;;8.00;99.90;;;;;;5052427;28;20040;-70
2023/01/13 00:16:01;;;;;;;38.75;5.85;;;8.50;99.90;;;;;;5052440;28;20118;-69
2023/01/13 00:18:27;;;;;;;37.15;4.88;;;8.10;99.90;;;;;;5052463;28;20159;-69
2023/01/13 00:21:10;;;;;;;31.15;5.60;;;8.20;99.90;;;;;;5052466;28;20124;-68
2023/01/13 00:23:36;;;;;;;37.17;5.25;;;8.00;99.90;;;;;;5051141;28;20434;-68
2023/01/13 00:26:05;;;;;;;36.38;5.88;;;7.80;99.90;;;;;;5051973;28;20513;-69
2023/01/13 00:28:31;;;;;;;33.30;5.43;;;8.10;99.90;;;;;;5052462;28;20057;-71
2023/01/13 00:31:08;;;;;;;32.20;6.40;;;8.20;99.90;;;;;;5052150;28;20113;-68
2023/01/13 00:33:35;;;;;;;34.75;6.32;;;8.20;99.90;;;;;;5051936;28;20048;-68
2023/01/13 00:36:03;;;;;;;47.08;5.35;;;7.90;99.90;;;;;;5052148;28;20080;-67
2023/01/13 00:38:33;;;;;;;43.90;5.97;;;7.80;99.90;;;;;;5051799;28;20146;-69
2023/01/13 00:41:00;;;;;;;38.47;5.75;;;7.90;99.90;;;;;;5052090;28;20037;-70
2023/01/13 00:43:27;;;;;;;36.17;6.38;;;7.80;99.90;;;;;;5051939;28;20049;-68
2023/01/13 00:45:54;;;;;;;34.92;5.38;;;7.80;99.90;;;;;;5051989;28;20102;-68
2023/01/13 00:48:20;;;;;;;;;;;7.80;99.90;;;;;;5052408;28;20453;-69
2023/01/13 00:50:46;;;;;;;49.90;6.78;;;7.80;99.90;;;;;;5051788;28;19979;-69
2023/01/13 00:53:13;;;;;;;31.60;5.85;;;8.10;99.90;;;;;;5051749;28;20056;-70
2023/01/13 00:55:39;;;;;;;39.20;6.75;;;7.80;99.90;;;;;;5051749;28;20124;-68
2023/01/13 00:58:05;;;;;;;41.35;6.75;;;8.10;99.90;;;;;;5051850;28;20106;-67
2023/01/13 01:00:32;;;;;;;48.85;7.93;;;8.10;99.90;;;;;;5051579;28;20041;-67
2023/01/13 01:02:57;;;;;;;55.30;6.78;;;7.80;99.90;;;;;;5051763;28;20045;-68
2023/01/13 01:05:23;;;;;;;45.05;6.13;;;7.80;99.90;;;;;;5051469;28;20574;-69
2023/01/13 01:07:49;;;;;;;43.90;6.32;;;7.80;99.90;;;;;;5051501;28;20079;-69
2023/01/13 01:10:15;;;;;;;34.80;6.75;;;7.70;99.90;;;;;;5049986;28;20037;-68
2023/01/13 01:12:41;;;;;;;40.17;5.93;;;8.20;99.90;;;;;;5051373;28;20119;-69
2023/01/13 01:15:08;;;;;;;55.00;6.90;;;7.80;99.90;;;;;;5051663;28;20135;-68
2023/01/13 01:17:35;;;;;;;47.97;6.97;;;7.70;99.90;;;;;;5051589;28;20053;-69
2023/01/13 01:20:03;;;;;;;35.50;6.00;;;7.70;99.90;;;;;;5051669;28;20340;-69
2023/01/13 01:22:29;;;;;;;53.88;7.82;;;7.60;99.90;;;;;;5051292;28;20088;-68
2023/01/13 01:24:55;;;;;;;44.80;5.80;;;7.90;99.90;;;;;;5051602;28;20088;-69
2023/01/13 01:27:20;;;;;;;45.05;6.30;;;7.60;99.90;;;;;;5051542;28;20052;-69
2023/01/13 01:29:46;;;;;;;51.00;6.82;;;7.40;99.90;;;;;;5051496;28;20652;-67
2023/01/13 01:32:12;;;;;;;48.58;7.07;;;7.50;99.90;;;;;;5051499;28;20052;-73
2023/01/13 01:34:38;;;;;;;37.75;5.35;;;7.60;99.90;;;;;;5050739;28;20049;-69
2023/01/13 01:37:04;;;;;;;44.60;6.30;;;7.60;99.90;;;;;;5055123;28;20045;-68
2023/01/13 01:39:30;;;;;;;39.60;6.32;;;7.80;99.90;;;;;;5055317;28;20543;-67
2023/01/13 01:44:54;;;;;;;43.60;6.95;;;7.60;99.90;;;;;;5054212;28;20049;-69
2023/01/13 01:47:23;;;;;;;45.88;6.88;;;7.60;99.90;;;;;;5055501;28;20051;-68
2023/01/13 01:49:49;;;;;;;50.80;7.53;;;;;;;;;;5054741;28;20049;-68
2023/01/13 01:52:36;;;;;;;41.83;6.20;;;7.50;99.90;;;;;;5053877;28;20091;-68
2023/01/13 01:55:16;;;;;;;41.58;5.88;;;7.80;99.90;;;;;;5053953;28;20053;-67
2023/01/13 01:57:45;;;;;;;41.20;6.05;;;7.80;99.90;;;;;;5055146;28;20213;-72
2023/01/13 02:00:12;;;;;;;55.75;8.00;;;7.30;99.90;;;;;;5055001;28;20037;-67
2023/01/13 02:02:40;;;;;;;45.33;7.05;;;7.40;99.90;;;;;;5055001;28;20485;-70
2023/01/13 02:05:06;;;;;;;49.33;6.35;;;7.40;99.90;;;;;;5054639;28;20045;-69
2023/01/13 02:07:35;;;;;;;47.47;6.72;;;7.40;99.90;;;;;;5054886;28;20041;-70
2023/01/13 02:10:05;;;;;;;30.98;5.68;;;7.30;99.90;;;;;;5054724;28;20052;-68
2023/01/13 02:12:32;;;;;;;44.92;6.55;;;7.50;99.90;;;;;;5054919;28;20083;-68
2023/01/13 02:15:02;;;;;;;54.42;6.15;;;7.70;99.90;;;;;;5055131;28;20115;-72
2023/01/13 02:17:55;;;;;;;45.25;5.70;;;7.40;99.90;;;;;;5053724;28;20406;-70
2023/01/13 02:20:43;;;;;;;33.40;6.65;;;7.70;99.90;;;;;;5053255;28;20048;-68
2023/01/13 02:26:31;;;;;;;46.08;7.10;;;7.70;99.90;;;;;;5054482;28;20059;-67
2023/01/13 02:32:26;;;;;;;39.75;6.88;;;8.00;99.90;;;;;;5054398;28;20493;-71
2023/01/13 02:35:25;;;;;;;54.85;7.38;;;7.80;99.90;;;;;;5054177;28;20112;-68
2023/01/13 02:37:52;;;;;;;48.03;7.50;;;7.50;99.90;;;;;;5054331;28;20103;-69
2023/01/13 02:40:35;;;;;;;40.30;6.28;;;7.70;99.90;;;;;;5054359;28;20053;-68
2023/01/13 02:45:58;;;;;;;33.45;6.13;;;7.50;99.90;;;;;;5053586;28;20053;-68
2023/01/13 02:48:27;;;;;;;49.20;7.45;;;7.90;99.90;;;;;;5053535;28;20110;-69
2023/01/13 02:50:58;;;;;;;39.15;6.40;;;7.60;99.90;;;;;;5053910;28;20107;-72
2023/01/13 02:54:07;;;;;;;44.17;6.53;;;7.50;99.90;;;;;;5054040;28;20087;-67
2023/01/13 02:56:37;;;;;;;49.10;6.28;;;7.40;99.90;;;;;;5043109;28;20160;-70
2023/01/13 02:59:03;;;;;;;37.42;6.65;;;7.10;99.90;;;;;;5053950;28;20055;-68
2023/01/13 03:01:29;;;;;;;49.00;7.43;;;7.50;99.90;;;;;;5053884;28;20049;-70
2023/01/13 03:03:55;;;;;;;45.33;8.05;;;7.40;99.90;;;;;;5052662;28;20412;-70
2023/01/13 03:06:34;;;;;;;36.75;6.88;;;7.70;99.90;;;;;;5053802;28;20098;-67
2023/01/13 03:09:15;;;;;;;57.50;7.65;;;7.80;99.90;;;;;;5053821;28;20049;-70
2023/01/13 03:12:09;;;;;;;52.78;7.63;;;7.60;99.90;;;;;;5053672;28;20088;-70
2023/01/13 03:14:45;;;;;;;54.72;6.90;;;7.70;99.90;;;;;;5053619;28;20053;-69
2023/01/13 03:17:17;;;;;;;48.65;7.13;;;7.40;99.90;;;;;;5053418;28;20048;-70
2023/01/13 03:19:53;;;;;;;48.95;6.47;;;7.40;99.90;;;;;;5053565;28;20056;-69
2023/01/13 03:22:31;;;;;;;59.28;7.88;;;7.90;99.90;;;;;;5053576;28;20567;-68
2023/01/13 03:25:14;;;;;;;47.33;6.45;;;7.70;99.90;;;;;;5053479;28;20055;-69
2023/01/13 03:27:49;;;;;;;50.72;7.72;;;7.00;99.90;;;;;;5053127;28;20512;-69
2023/01/13 03:30:33;;;;;;;47.10;7.75;;;7.90;99.90;;;;;;5053594;28;20041;-67
2023/01/13 03:33:08;;;;;;;37.05;6.25;;;7.90;99.90;;;;;;5053090;28;20049;-68
2023/01/13 03:35:44;;;;;;;50.95;7.47;;;8.10;99.90;;;;;;5052776;28;20064;-68
2023/01/13 03:38:29;;;;;;;50.45;7.13;;;7.90;99.90;;;;;;5053194;28;20055;-67
2023/01/13 03:41:03;;;;;;;38.70;6.55;;;7.90;99.90;;;;;;5053123;28;20102;-67
2023/01/13 03:46:45;;;;;;;35.78;5.80;;;7.80;99.90;;;;;;5051531;28;20060;-67
2023/01/13 03:49:15;;;;;;;42.33;6.53;;;7.90;99.90;;;;;;5053027;28;20176;-66
2023/01/13 03:51:43;;;;;;;40.53;6.15;;;8.40;99.90;;;;;;5052775;28;20128;-67
2023/01/13 03:54:11;;;;;;;38.75;5.35;;;8.10;99.90;;;;;;5052884;28;20053;-68
2023/01/13 03:56:44;;;;;;;39.60;5.57;;;7.80;99.90;;;;;;5052898;28;20163;-67
2023/01/13 03:59:17;;;;;;;36.15;5.65;;;8.00;99.90;;;;;;5052698;28;20103;-69
2023/01/13 04:02:06;;;;;;;31.80;5.72;;;8.10;99.90;;;;;;5052549;28;20055;-67
2023/01/13 04:04:56;;;;;;;33.72;5.53;;;8.10;99.90;;;;;;5052750;28;20048;-67
2023/01/13 04:07:41;;;;;;;36.95;6.10;;;8.00;99.90;;;;;;5052666;28;20121;-67
2023/01/13 04:10:09;;;;;;;38.80;5.97;;;7.70;99.90;;;;;;5052716;28;20116;-68
2023/01/13 04:12:59;;;;;;;41.33;6.38;;;7.90;99.90;;;;;;5052466;28;20553;-68
2023/01/13 04:15:41;;;;;;;41.40;6.60;;;7.70;99.90;;;;;;5052258;28;20084;-68
2023/01/13 04:18:29;;;;;;;47.42;6.45;;;7.60;99.90;;;;;;5052471;28;20049;-67
2023/01/13 04:20:57;;;;;;;37.75;6.35;;;7.70;99.90;;;;;;5052418;28;20406;-69
2023/01/13 04:23:24;;;;;;;35.80;6.32;;;8.90;99.90;;;;;;5052392;28;20048;-69
2023/01/13 04:25:50;;;;;;;36.67;6.32;;;8.00;99.90;;;;;;5051127;28;20147;-70
2023/01/13 04:28:17;;;;;;;43.47;7.10;;;8.00;99.90;;;;;;5051915;28;20132;-68
2023/01/13 04:30:43;;;;;;;52.55;6.50;;;7.70;99.90;;;;;;5051853;28;20045;-67
2023/01/13 04:33:10;;;;;;;40.53;6.72;;;7.70;99.90;;;;;;5052213;28;20130;-69
2023/01/13 04:35:36;;;;;;;;;;;8.20;99.90;;;;;;5052393;28;20064;-69
2023/01/13 04:38:03;;;;;;;41.33;5.57;;;7.80;99.90;;;;;;5051842;28;19921;-68
2023/01/13 04:40:29;;;;;;;41.13;6.70;;;7.90;99.90;;;;;;5034431;28;20060;-69
2023/01/13 04:42:55;;;;;;;39.28;5.53;;;7.90;99.90;;;;;;5052388;28;20049;-68
2023/01/13 04:45:21;;;;;;;45.53;6.18;;;8.10;99.90;;;;;;5050543;28;20414;-70
2023/01/13 04:47:47;;;;;;;39.63;6.53;;;8.10;99.90;;;;;;5052316;28;20040;-68
2023/01/13 04:50:13;;;;;;;;;;;8.00;99.90;;;;;;5034659;28;20052;-65
2023/01/13 04:52:39;;;;;;;47.35;6.75;;;8.20;99.90;;;;;;5051632;28;20704;-66
2023/01/13 04:55:06;;;;;;;32.85;5.78;;;8.40;99.90;;;;;;5051954;28;20050;-67
2023/01/13 04:57:33;;;;;;;34.65;6.70;;;8.20;99.90;;;;;;5050553;28;20059;-68
2023/01/13 05:00:00;;;;;;;45.97;7.80;;;8.30;99.90;;;;;;5051555;28;20131;-64
2023/01/13 05:02:26;;;;;;;41.40;5.85;;;8.50;99.90;;;;;;5051873;28;20061;-65
2023/01/13 05:04:52;;;;;;;35.20;5.40;;;8.00;99.90;;;;;;5051806;28;20161;-67
2023/01/13 05:07:18;;;;;;;32.15;4.55;;;8.40;99.90;;;;;;5051820;28;20160;-67
2023/01/13 05:09:43;;;;;;;36.92;5.97;;;8.00;99.90;;;;;;5052566;28;20178;-66
2023/01/13 05:17:39;;;;;;;35.75;5.30;;;8.30;99.90;;;;;;5055911;28;20060;-67
2023/01/13 05:20:06;;;;;;;37.90;5.57;;;8.40;99.90;;;;;;5055833;28;20161;-70
2023/01/13 05:25:22;;;;;;;34.35;5.15;;;8.30;99.90;;;;;;5055725;28;20137;-68
2023/01/13 05:27:59;;;;;;;41.70;6.68;;;8.00;99.90;;;;;;5055467;28;20136;-66
2023/01/13 05:30:36;;;;;;;28.27;4.97;;;8.10;99.90;;;;;;5055649;28;20053;-68
2023/01/13 05:33:02;;;;;;;37.05;5.53;;;8.50;99.90;;;;;;5055629;28;20040;-66
2023/01/13 05:35:28;;;;;;;31.80;5.45;;;8.30;99.90;;;;;;5055297;28;20060;-69
2023/01/13 05:37:54;;;;;;;;;;;8.40;99.90;;;;;;5055916;28;20448;-69
2023/01/13 05:43:20;;;;;;;33.08;4.65;;;8.10;99.90;;;;;;5055116;28;20455;-67
2023/01/13 05:45:56;;;;;;;34.60;5.97;;;8.20;99.90;;;;;;5055083;28;20508;-71
2023/01/13 05:48:25;;;;;;;23.42;4.18;;;8.40;99.90;;;;;;5055319;28;20131;-68
2023/01/13 05:50:52;;;;;;;40.08;5.85;;;8.50;99.90;;;;;;5055222;28;20146;-68
2023/01/13 05:53:19;;;;;;;32.80;5.40;;;8.30;99.90;;;;;;5055260;28;20045;-66
2023/01/13 05:55:45;;;;;;;27.85;5.18;;;8.10;99.90;;;;;;5055213;28;20052;-69
2023/01/13 05:58:13;;;;;;;25.33;4.03;;;8.30;99.90;;;;;;5054891;28;20474;-67
2023/01/13 06:00:38;;;;;;;31.95;6.00;;;8.10;99.90;;;;;;5055161;28;20051;-67
2023/01/13 06:03:05;;;;;;;26.27;4.88;;;8.10;99.90;;;;;;5055195;28;20045;-66
2023/01/13 06:05:31;;;;;;;;;;;8.40;99.90;;;;;;5055811;28;20103;-71
2023/01/13 06:07:57;;;;;;;30.75;4.05;;;8.10;99.90;;;;;;5054089;28;19920;-66
2023/01/13 06:10:24;;;;;;;34.63;5.10;;;8.10;99.90;;;;;;5054846;28;20474;-67
2023/01/13 06:12:50;;;;;;;33.35;5.03;;;8.50;99.90;;;;;;5054681;28;20111;-66
2023/01/13 06:15:16;;;;;;;31.90;4.60;;;7.90;99.90;;;;;;5054863;28;20044;-69
2023/01/13 06:17:42;;;;;;;28.35;4.93;;;8.00;99.90;;;;;;5053709;28;20041;-66
2023/01/13 06:20:08;;;;;;;36.08;5.32;;;7.60;99.90;;;;;;5054774;28;20044;-66
2023/01/13 06:22:38;;;;;;;31.05;4.72;;;7.40;99.90;;;;;;5054607;28;20051;-66
2023/01/13 06:25:12;;;;;;;36.38;5.28;;;7.90;99.90;;;;;;5054475;28;20126;-67
2023/01/13 06:27:39;;;;;;;30.77;5.32;;;7.30;99.90;;;;;;5053421;28;20049;-68
2023/01/13 06:30:05;;;;;;;41.70;5.50;;;7.40;99.90;;;;;;5054463;28;20056;-67
2023/01/13 06:32:38;;;;;;;30.83;4.88;;;7.40;99.90;;;;;;5053306;28;20118;-69
2023/01/13 06:35:08;;;;;;;33.95;5.20;;;7.40;99.90;;;;;;5054312;28;20060;-65
2023/01/13 06:37:34;;;;;;;39.47;5.63;;;7.60;99.90;;;;;;5054093;28;20497;-70
2023/01/13 06:40:04;;;;;;;37.03;5.90;;;7.30;99.90;;;;;;5052799;28;20424;-67
2023/01/13 06:45:18;;;;;;;27.65;5.20;;;7.30;99.90;;;;;;5054343;28;20069;-73
2023/01/13 06:47:43;;;;;;;34.05;4.82;;;7.90;99.90;;;;;;5054244;28;20089;-67
2023/01/13 06:50:10;;;;;;;33.53;5.40;;;7.70;99.90;;;;;;5053040;28;20087;-68
2023/01/13 06:52:35;;;;;;;36.20;4.95;;;7.60;99.90;;;;;;5054088;28;20045;-66
2023/01/13 06:55:01;;;;;;;34.20;5.07;;;7.50;99.90;;;;;;5053848;28;20048;-67
2023/01/13 06:57:27;;;;;;;30.08;5.05;;;7.70;99.90;;;;;;5052793;28;20087;-66
2023/01/13 06:59:53;;;;;;;28.60;4.97;;;7.70;99.90;;;;;;5053996;28;20088;-68
2023/01/13 07:02:19;;;;;;;34.85;5.30;;;7.50;99.90;;;;;;5053905;28;20565;-66
2023/01/13 07:04:45;;;;;;;29.45;4.80;;;7.40;99.90;;;;;;5053913;28;20040;-66
2023/01/13 07:07:12;;;;;;;33.00;4.95;;;7.80;99.90;;;;;;5040039;28;20930;-69
2023/01/13 07:09:38;;;;;;;32.72;5.63;;;7.10;99.90;;;;;;5042259;28;20041;-74
2023/01/13 07:12:04;;;;;;;27.92;4.45;;;7.70;99.90;;;;;;5050699;28;20044;-69
2023/01/13 07:17:14;;;;;;;33.35;5.18;;;7.40;99.90;;;;;;5051839;28;20081;-69
2023/01/13 07:19:40;;;;;;;32.50;5.93;;;7.40;99.90;;;;;;5052921;28;20489;-67
2023/01/13 07:22:06;;;;;;;43.35;5.65;;;7.70;99.90;;;;;;5052256;28;20040;-67
2023/01/13 07:24:31;;;;;;;29.58;4.13;;;7.10;99.90;;;;;;5051848;28;20060;-67
2023/01/13 07:26:57;;;;;;;41.08;5.72;;;7.50;99.90;;;;;;5052449;28;20045;-67
2023/01/13 07:29:23;;;;;;;31.88;4.53;;;7.40;99.90;;;;;;5052947;28;20049;-68
2023/01/13 07:31:49;;;;;;;29.85;5.32;;;7.30;99.90;;;;;;5051537;28;20147;-67
2023/01/13 07:34:15;;;;;;;26.38;4.75;;;7.60;99.90;;;;;;5051653;28;20469;-68
2023/01/13 07:36:40;;;;;;;38.88;5.38;;;7.40;99.90;;;;;;5052925;28;20060;-76
2023/01/13 07:39:06;;;;;;;43.47;5.93;;;7.40;99.90;;;;;;5034770;28;20084;-68
2023/01/13 07:44:16;;;;;;;26.02;4.70;;;7.70;99.90;;;;;;5052759;28;20057;-69
2023/01/13 07:46:42;;;;;;;30.52;5.25;;;7.40;99.90;;;;;;5052563;28;20182;-76
2023/01/13 07:49:08;;;;;;;34.13;6.28;;;7.50;99.90;;;;;;5052239;28;20439;-68
2023/01/13 07:51:38;;;;;;;34.05;5.65;;;7.70;99.90;;;;;;5052451;28;20052;-68
2023/01/13 07:54:04;;;;;;;37.03;5.13;;;8.10;99.90;;;;;;5051174;28;20393;-69
2023/01/13 07:56:30;;;;;;;29.98;5.05;;;7.70;99.90;;;;;;5052090;28;20076;-69
2023/01/13 07:58:58;;;;;;;24.08;4.60;;;7.70;99.90;;;;;;5052928;28;20044;-68
2023/01/13 08:01:26;;;;;;;38.22;5.18;;;8.00;99.90;;;;;;5052418;28;20033;-67
2023/01/13 08:03:52;;;;;;;35.70;5.00;;;7.70;99.90;;;;;;5051587;28;20136;-70
2023/01/13 08:06:18;;;;;;;32.22;6.45;;;7.50;99.90;;;;;;5051643;28;20187;-67
2023/01/13 08:08:44;;;;;;;37.15;4.80;;;7.80;99.90;;;;;;5050661;28;20135;-70
2023/01/13 08:11:09;;;;;;;38.60;5.75;;;7.90;99.90;;;;;;5051229;28;20045;-67
2023/01/13 08:13:35;;;;;;;43.60;5.82;;;7.90;99.90;;;;;;5052612;28;20199;-67
2023/01/13 08:16:07;;;;;;;35.63;5.88;;;7.90;99.90;;;;;;5052555;28;20481;-68
2023/01/13 08:18:34;;;;;;;35.47;6.28;;;8.00;99.90;;;;;;5052406;28;20053;-69
2023/01/13 08:21:03;;;;;;;36.92;5.43;;;7.90;99.90;;;;;;5052164;28;20362;-68
2023/01/13 08:23:29;;;;;;;32.13;5.78;;;8.00;99.90;;;;;;5052435;28;20397;-69
2023/01/13 08:26:02;;;;;;;34.70;6.00;;;7.80;99.90;;;;;;5052362;28;20041;-67
2023/01/13 08:28:28;;;;;;;22.83;5.40;;;8.10;99.90;;;;;;5052437;28;20044;-67
2023/01/13 08:30:58;;;;;;;40.72;6.63;;;8.30;99.90;;;;;;5051017;28;20076;-68
2023/01/13 08:33:24;;;;;;;39.40;5.88;;;8.10;99.90;;;;;;5052283;28;20064;-68
2023/01/13 08:35:52;;;;;;;28.73;4.45;;;7.70;99.90;;;;;;5052005;28;20448;-68
2023/01/13 08:38:17;;;;;;;37.15;5.75;;;8.50;99.90;;;;;;5050775;28;20489;-69
2023/01/13 08:40:43;;;;;;;34.20;6.05;;;8.30;99.90;;;;;;5052047;28;20124;-68
2023/01/13 08:43:09;;;;;;;40.58;6.00;;;7.70;99.90;;;;;;5052094;28;20448;-67
2023/01/13 08:45:35;;;;;;;32.90;4.50;;;7.90;99.90;;;;;;5051227;28;20049;-66
2023/01/13 08:48:01;;;;;;;30.10;4.60;;;7.90;99.90;;;;;;5052054;28;20041;-67
2023/01/13 08:50:27;;;;;;;36.95;6.75;;;7.60;99.90;;;;;;5051610;28;20166;-70
2023/01/13 08:52:53;;;;;;;43.17;5.40;;;7.30;99.90;;;;;;5051925;28;20092;-67
2023/01/13 08:55:19;;;;;;;45.70;6.40;;;7.00;99.90;;;;;;5051973;28;20128;-68
2023/01/13 08:57:44;;;;;;;49.85;5.45;;;7.00;99.90;;;;;;5052245;28;20043;-67
2023/01/13 09:00:11;;;;;;;41.97;5.10;;;7.20;99.90;;;;;;5050866;28;20099;-68
2023/01/13 09:02:37;;;;;;;;;;;6.90;99.90;;;;;;5052309;28;20045;-69
2023/01/13 09:05:06;;;;;;;34.13;5.45;;;6.80;99.90;;;;;;5051632;28;19972;-67
2023/01/13 09:07:32;;;;;;;39.83;5.65;;;6.90;99.90;;;;;;5051759;28;20045;-66
2023/01/13 09:09:58;;;;;;;31.80;5.20;;;7.00;99.90;;;;;;5051343;28;20516;-71
2023/01/13 09:15:09;;;;;;;31.13;4.72;;;7.10;99.90;;;;;;5051792;28;20056;-66
2023/01/13 09:17:35;;;;;;;25.83;4.82;;;7.20;99.90;;;;;;5050576;28;20402;-67
2023/01/13 09:20:00;;;;;;;34.72;4.78;;;7.40;99.90;;;;;;5051406;28;20060;-66
2023/01/13 09:22:26;;;;;;;36.47;4.65;;;7.10;99.90;;;;;;5051609;28;20497;-67
2023/01/13 09:24:53;;;;;;;34.22;4.95;;;7.30;99.90;;;;;;5050029;28;20053;-68
2023/01/13 09:27:21;;;;;;;37.10;6.25;;;7.40;99.90;;;;;;5051490;28;20123;-67
2023/01/13 09:29:47;;;;;;;42.30;5.90;;;7.40;99.90;;;;;;5051512;28;20063;-68
2023/01/13 09:32:14;;;;;;;40.58;5.55;;;7.80;99.90;;;;;;5051396;28;20097;-68
2023/01/13 09:37:37;;;;;;;35.55;4.63;;;7.40;99.90;;;;;;5051522;28;20049;-66
2023/01/13 09:40:06;;;;;;;35.08;5.63;;;7.20;99.90;;;;;;5051271;28;20559;-69
2023/01/13 09:45:57;;;;;;;37.03;5.68;;;7.40;99.90;;;;;;5051504;28;20057;-67
2023/01/13 09:48:30;;;;;;;42.42;5.22;;;7.60;99.90;;;;;;5051308;28;20099;-66
2023/01/13 09:51:13;;;;;;;33.72;4.43;;;7.30;99.90;;;;;;5051271;28;20494;-67
2023/01/13 09:53:46;;;;;;;34.08;5.40;;;7.40;99.90;;;;;;5051509;28;20074;-69
2023/01/13 09:56:12;;;;;;;33.97;4.35;;;7.70;99.90;;;;;;5051636;28;20087;-67
2023/01/13 09:58:37;;;;;;;39.47;5.38;;;7.60;99.90;;;;;;5055149;28;20100;-68
2023/01/13 10:01:30;;;;;;;32.33;4.72;;;7.30;99.90;;;;;;5055101;28;20385;-70
2023/01/13 10:04:01;;;;;;;34.53;4.93;;;7.10;99.90;;;;;;5054668;28;20131;-66
2023/01/13 10:06:37;;;;;;;31.77;4.82;;;7.10;99.90;;;;;;5054959;28;20045;-67
2023/01/13 10:09:03;;;;;;;30.42;4.53;;;7.10;99.90;;;;;;5054962;28;20135;-68
2023/01/13 10:14:38;;;;;;;32.97;4.65;;;7.80;99.90;;;;;;5054975;28;19924;-69
2023/01/13 10:17:17;;;;;;;37.92;6.32;;;7.80;99.90;;;;;;5036909;28;20064;-67
2023/01/13 10:20:11;;;;;;;33.03;5.03;;;7.70;99.90;;;;;;5054592;28;20092;-68
2023/01/13 10:22:58;;;;;;;35.90;4.88;;;7.60;99.90;;;;;;5054584;28;20041;-68
2023/01/13 10:25:45;;;;;;;32.72;5.22;;;7.90;99.90;;;;;;5053496;28;20060;-70
2023/01/13 10:28:14;;;;;;;39.53;6.20;;;8.10;99.90;;;;;;5054523;28;20049;-67
2023/01/13 10:30:42;;;;;;;43.05;6.00;;;7.80;99.90;;;;;;5054333;28;20124;-67
2023/01/13 10:33:28;;;;;;;42.05;6.13;;;8.30;99.90;;;;;;5053982;28;20053;-67
2023/01/13 10:36:00;;;;;;;33.05;4.40;;;8.20;99.90;;;;;;5053809;28;20064;-69
2023/01/13 10:38:41;;;;;;;35.80;4.07;;;8.00;99.90;;;;;;5054341;28;20049;-68
2023/01/13 10:41:18;;;;;;;29.73;5.03;;;7.80;99.90;;;;;;5054359;28;20049;-69
2023/01/13 10:43:44;;;;;;;;;;;7.90;99.90;;;;;;5054630;28;20147;-67
2023/01/13 10:46:14;;;;;;;33.17;4.93;;;8.10;99.90;;;;;;5052639;28;20292;-69
2023/01/13 10:48:59;;;;;;;33.28;4.72;;;8.00;99.90;;;;;;5054227;28;20045;-66
2023/01/13 10:51:36;;;;;;;28.38;4.78;;;7.70;99.90;;;;;;5053983;28;20041;-67
2023/01/13 10:54:18;;;;;;;32.47;5.07;;;7.90;99.90;;;;;;5053712;28;20571;-69
2023/01/13 10:56:45;;;;;;;38.05;6.55;;;8.10;99.90;;;;;;5053950;28;20045;-69
2023/01/13 10:59:25;;;;;;;26.38;4.13;;;8.20;99.90;;;;;;5053925;28;20106;-68
2023/01/13 11:01:58;;;;;;;42.55;6.03;;;7.80;99.90;;;;;;5053619;28;20037;-66
2023/01/13 11:04:33;;;;;;;22.60;4.85;;;8.10;99.90;;;;;;5053766;28;20041;-69
2023/01/13 11:07:01;;;;;;;29.95;4.68;;;8.50;99.90;;;;;;5049547;28;20044;-69
2023/01/13 11:09:28;;;;;;;32.00;4.95;;;8.00;99.90;;;;;;5051688;28;20443;-67
2023/01/13 11:11:55;;;;;;;26.38;4.47;;;8.10;99.90;;;;;;5053440;28;20111;-69
2023/01/13 11:14:40;;;;;;;34.10;5.50;;;8.20;99.90;;;;;;5052398;28;20052;-67
2023/01/13 11:17:13;;;;;;;28.65;4.35;;;8.20;99.90;;;;;;5053448;28;20052;-66
2023/01/13 11:19:52;;;;;;;29.38;5.00;;;8.20;99.90;;;;;;5053600;28;20482;-68
2023/01/13 11:22:51;;;;;;;27.88;4.82;;;8.40;99.90;;;;;;5053558;28;20132;-71
2023/01/13 11:25:41;;;;;;;20.02;4.00;;;8.30;99.90;;;;;;5053354;28;20056;-67
2023/01/13 11:28:38;;;;;;;16.73;4.22;;;8.50;99.90;;;;;;5053434;28;20040;-67
2023/01/13 11:31:17;;;;;;;23.42;5.93;;;8.10;99.90;;;;;;5053092;28;20053;-69
2023/01/13 11:33:58;;;;;;;27.63;5.30;;;7.90;99.90;;;;;;5053336;28;20045;-68
2023/01/13 11:36:39;;;;;;;24.23;3.97;;;7.70;99.90;;;;;;5053332;28;20056;-71
2023/01/13 11:39:20;;;;;;;29.77;4.07;;;7.80;99.90;;;;;;5053329;28;20044;-69
2023/01/13 11:42:19;;;;;;;27.92;4.68;;;8.10;99.90;;;;;;5053178;28;20087;-66
2023/01/13 11:45:16;;;;;;;22.13;4.57;;;7.90;99.90;;;;;;5051589;28;20049;-68
2023/01/13 11:47:44;;;;;;;22.80;3.97;;;8.40;99.90;;;;;;5053366;28;20056;-66
2023/01/13 11:50:18;;;;;;;22.17;3.15;;;8.40;99.90;;;;;;5052964;28;20072;-68
2023/01/13 11:53:14;;;;;;;18.52;2.92;;;8.20;99.90;;;;;;5052995;28;20477;-67
2023/01/13 11:56:23;;;;;;;13.85;3.60;;;7.90;99.90;;;;;;5052943;28;20053;-71
2023/01/13 11:59:21;;;;;;;25.55;4.28;;;7.80;99.90;;;;;;5034650;28;20053;-68
2023/01/13 12:02:11;;;;;;;15.27;2.17;;;7.90;99.90;;;;;;5052829;28;20045;-67
2023/01/13 12:05:02;;;;;;;20.20;3.92;;;7.90;99.90;;;;;;5052726;28;20469;-67
2023/01/13 12:07:51;;;;;;;12.52;2.60;;;7.70;99.90;;;;;;5053001;28;20371;-66
2023/01/13 12:10:54;;;;;;;21.38;3.38;;;7.80;99.90;;;;;;5052538;28;20444;-67
2023/01/13 12:13:32;;;;;;;21.30;3.28;;;7.80;99.90;;;;;;5052267;28;20048;-68
2023/01/13 12:16:19;;;;;;;27.38;4.07;;;8.10;99.90;;;;;;5052594;28;20047;-69
2023/01/13 12:19:17;;;;;;;17.27;3.08;;;8.30;99.90;;;;;;5052401;28;20049;-67
2023/01/13 12:21:46;;;;;;;17.88;2.92;;;8.20;99.90;;;;;;5051406;28;20095;-70
2023/01/13 12:25:00;;;;;;;18.15;2.95;;;7.90;99.90;;;;;;5052343;28;20106;-71
2023/01/13 12:27:51;;;;;;;22.55;3.33;;;8.50;99.90;;;;;;5047237;28;20190;-70
2023/01/13 12:30:28;;;;;;;19.50;2.80;;;8.30;99.90;;;;;;5049485;28;20064;-74
2023/01/13 12:33:02;;;;;;;20.63;4.65;;;8.20;99.90;;;;;;5052291;28;20044;-69
2023/01/13 12:36:06;;;;;;;20.40;2.85;;;8.40;99.90;;;;;;5051770;28;20505;-69
2023/01/13 12:38:48;;;;;;;27.92;4.75;;;8.20;99.90;;;;;;5051448;28;20057;-69
2023/01/13 12:41:32;;;;;;;21.58;3.92;;;7.80;99.90;;;;;;5052180;28;20469;-68
2023/01/13 12:44:15;;;;;;;20.48;3.78;;;7.80;99.90;;;;;;5051917;28;20056;-68
2023/01/13 12:46:57;;;;;;;19.48;2.60;;;8.30;99.90;;;;;;5052025;28;20052;-68
2023/01/13 12:49:29;;;;;;;20.02;5.45;;;8.60;99.90;;;;;;5052019;28;20060;-72
2023/01/13 12:51:54;;;;;;;23.08;3.38;;;8.20;99.90;;;;;;5051890;28;20041;-70
2023/01/13 12:54:29;;;;;;;17.00;2.70;;;8.30;99.90;;;;;;5052180;28;20465;-71
2023/01/13 12:56:56;;;;;;;18.38;3.05;;;8.60;99.90;;;;;;5050268;28;20052;-69
2023/01/13 12:59:22;;;;;;;15.32;2.88;;;8.30;99.90;;;;;;5050590;28;20056;-68
2023/01/13 13:02:09;;;;;;;19.60;3.50;;;8.10;99.90;;;;;;5051851;28;20163;-69
2023/01/13 13:04:50;;;;;;;13.32;2.65;;;8.20;99.90;;;;;;5051438;28;20501;-70
2023/01/13 13:07:22;;;;;;;23.52;3.83;;;8.50;99.90;;;;;;5051884;28;20065;-70
2023/01/13 13:09:56;;;;;;;14.32;3.25;;;8.50;99.90;;;;;;5051867;28;20041;-67
2023/01/13 13:15:32;;;;;;;20.08;3.47;;;8.00;99.90;;;;;;5051628;28;20049;-67
2023/01/13 13:17:58;;;;;;;12.20;3.17;;;8.70;99.90;;;;;;5050465;28;20660;-68
2023/01/13 13:20:55;;;;;;;13.15;2.75;;;8.50;99.90;;;;;;5051693;28;20132;-68
2023/01/13 13:23:46;;;;;;;23.50;2.88;;;8.60;99.90;;;;;;5051590;28;20497;-70
2023/01/13 13:26:35;;;;;;;21.02;3.45;;;8.60;99.90;;;;;;5051097;28;20084;-67
2023/01/13 13:29:21;;;;;;;12.50;2.70;;;8.50;99.90;;;;;;5051674;28;20067;-69
2023/01/13 13:32:05;;;;;;;18.00;2.75;;;8.50;99.90;;;;;;5052880;28;20041;-68
2023/01/13 13:35:02;;;;;;;12.70;2.70;;;8.50;99.90;;;;;;5055167;28;20399;-69
2023/01/13 13:37:27;;;;;;;21.42;3.70;;;8.60;99.90;;;;;;5055583;28;20057;-67
2023/01/13 13:48:34;;;;;;;23.50;3.85;;;8.50;99.90;;;;;;5055332;28;20061;-67
2023/01/13 13:51:19;;;;;;;26.83;3.67;;;8.40;99.90;;;;;;5055288;28;20060;-67
2023/01/13 13:53:45;;;;;;;13.48;2.53;;;8.50;99.90;;;;;;5054196;28;20056;-67
2023/01/13 13:56:16;;;;;;;20.23;3.50;;;8.50;99.90;;;;;;5054910;28;20056;-69
2023/01/13 13:58:42;;;;;;;22.88;4.40;;;8.50;99.90;;;;;;5055167;28;20045;-67
2023/01/13 14:01:27;;;;;;;13.80;3.17;;;8.30;99.90;;;;;;5053907;28;20037;-67
2023/01/13 14:04:03;;;;;;;23.95;3.67;;;7.90;99.90;;;;;;5055213;28;20447;-69
2023/01/13 14:06:31;;;;;;;23.63;3.75;;;8.20;99.90;;;;;;5048350;28;20112;-70
2023/01/13 14:08:57;;;;;;;20.45;3.65;;;7.90;99.90;;;;;;5035127;28;20467;-69
2023/01/13 14:11:27;;;;;;;25.00;4.32;;;8.10;99.90;;;;;;5034702;28;20192;-68
2023/01/13 14:14:12;;;;;;;15.48;3.05;;;7.90;99.90;;;;;;5035013;28;20068;-70